Mont Saint Michel — FNMT — position and weather

sailwx.info

Track history (hours):
 
Tides and Currents Weather Stations Pressure Air Temp Water Temp Dewpoint Dewpoint Depression Visibility Wind Speed Wind Dir Waves Ship Positions

Mont Saint Michel

Last reported at 2015-May-27 21:34 UTC. Time now 2015-May-27 21:58 UTC.
Position N 50°46' W 001°05'.

Length 173 m; beam 29 m.

Type: Ship. MMSI: 227023100.

Date/timePositionNaut miles runAvg speedWind from/ knotsBaromVisibWave heightAir tempDewpointWater temp
2015-May-27 21:34N 50°46' W 001°05'2 2.5
2015-May-27 20:33N 50°49' W 001°06'0 0.0
2015-May-27 19:33N 50°49' W 001°06'0 0.0
2015-May-27 18:33N 50°49' W 001°06'5 4.7
2015-May-27 17:34N 50°44' W 001°04'1818.2
2015-May-27 16:34N 50°28' W 000°50'1917.9
2015-May-27 15:30N 50°10' W 000°42'1717.9
2015-May-27 14:34N 49°54' W 000°33'1818.2
2015-May-27 13:33N 49°37' W 000°25'1717.1
2015-May-27 12:33N 49°21' W 000°15'3 3.4
2015-May-27 11:33N 49°17' W 000°15'0 0.0
2015-May-27 10:33N 49°17' W 000°15'0 0.0
2015-May-27 09:33N 49°17' W 000°15'0 0.0
2015-May-27 08:33N 49°17' W 000°15'0 0.0
2015-May-27 07:33N 49°17' W 000°15'0 0.0
2015-May-27 06:33N 49°17' W 000°15'0 0.0
2015-May-27 05:33N 49°17' W 000°15'10 9.6
2015-May-27 04:33N 49°27' W 000°17'1212.3
2015-May-27 03:33N 49°38' W 000°24'1312.8
2015-May-27 02:33N 49°50' W 000°31'1312.8
2015-May-27 01:33N 50°02' W 000°38'1312.7
2015-May-27 00:33N 50°14' W 000°44'1515.6
2015-May-26 23:34N 50°29' W 000°53'1515.2
2015-May-26 22:34N 50°43' W 001°01'6 6.3
2015-May-26 21:33N 50°49' W 001°06'0 0.0
2015-May-26 20:34N 50°49' W 001°06'4 4.0
2015-May-26 19:33N 50°45' W 001°05'1919.3
2015-May-26 18:33N 50°27' W 000°53'2020.2
2015-May-26 17:33N 50°08' W 000°41'1919.3
2015-May-26 16:33N 49°50' W 000°31'1918.8
2015-May-26 15:33N 49°33' W 000°21'1615.7
2015-May-26 14:33N 49°17' W 000°15'0 0.0
2015-May-26 13:33N 49°17' W 000°15'1 1.0
2015-May-26 12:33N 49°18' W 000°15'1918.9
2015-May-26 11:34N 49°37' W 000°21'1919.4
2015-May-26 10:34N 49°55' W 000°31'1919.1
2015-May-26 09:33N 50°13' W 000°41'1919.3
2015-May-26 08:34N 50°31' W 000°53'1817.6
2015-May-26 07:33N 50°46' W 001°06'2 2.2
2015-May-26 06:33N 50°49' W 001°06'0 0.1
2015-May-26 05:34N 50°49' W 001°06'1313.0
2015-May-26 04:34N 50°37' W 000°56'1211.9
2015-May-26 03:33N 50°27' W 000°46'1110.9
2015-May-26 02:33N 50°16' W 000°43'1111.0
2015-May-26 01:31N 50°05' W 000°38'1111.3
2015-May-26 00:33N 49°55' W 000°33'1211.5
2015-May-25 23:33N 49°45' W 000°26'1211.5
2015-May-25 22:33N 49°33' W 000°21'1211.6
2015-May-25 21:33N 49°23' W 000°14'6 5.7
2015-May-25 20:33N 49°17' W 000°15'0 0.0
2015-May-25 19:34N 49°17' W 000°15'1211.7
2015-May-25 18:33N 49°29' W 000°19'1919.0
2015-May-25 17:33N 49°47' W 000°28'1817.5
2015-May-25 16:33N 50°03' W 000°37'1817.6
2015-May-25 15:33N 50°20' W 000°46'2019.7
2015-May-25 14:33N 50°38' W 000°58'1211.7
2015-May-25 13:34N 50°49' W 001°06'0 0.0
2015-May-25 12:33N 50°49' W 001°06'5 5.4
2015-May-25 11:34N 50°44' W 001°03'1716.3
2015-May-25 10:32N 50°28' W 000°54'1918.5
2015-May-25 09:29N 50°10' W 000°44'1920.2
2015-May-25 08:34N 49°52' W 000°34'2020.1
2015-May-25 07:34N 49°33' W 000°23'1716.8
2015-May-25 06:33N 49°17' W 000°15'0 0.1
2015-May-25 05:33N 49°17' W 000°15'0 0.1
2015-May-25 04:33N 49°17' W 000°15'1515.1
2015-May-25 03:33N 49°32' W 000°19'1312.5
2015-May-25 02:33N 49°44' W 000°26'1212.4
2015-May-25 01:33N 49°56' W 000°31'1615.2
2015-May-25 00:30N 50°11' W 000°37'1718.2
2015-May-24 23:33N 50°26' W 000°51'1717.0
2015-May-24 22:33N 50°42' W 000°59'8 7.7
2015-May-24 21:33N 50°49' W 001°06'0 0.0
2015-May-24 20:33N 50°49' W 001°06'6 6.3
2015-May-24 19:34N 50°43' W 001°01'1716.9
2015-May-24 18:33N 50°28' W 000°51'3618.0
2015-May-24 16:33N 49°54' W 000°32'1918.6
2015-May-24 15:33N 49°36' W 000°21'1818.3
2015-May-24 14:33N 49°19' W 000°15'1 1.2
2015-May-24 13:34N 49°17' W 000°15'0 0.1
2015-May-24 12:33N 49°17' W 000°15'1716.6
2015-May-24 11:33N 49°33' W 000°20'2020.1
2015-May-24 10:33N 49°53' W 000°29'3818.8
2015-May-24 08:33N 50°28' W 000°52'1818.0
2015-May-24 07:33N 50°44' W 001°04'5 5.0
2015-May-24 06:33N 50°49' W 001°06'0 0.0
2015-May-24 05:33N 50°49' W 001°06'1211.7
2015-May-24 04:33N 50°38' W 000°59'1111.3
2015-May-24 03:34N 50°27' W 000°53'1111.3
2015-May-24 02:33N 50°16' W 000°48'1413.9
2015-May-24 01:33N 50°04' W 000°40'1111.3
2015-May-24 00:34N 49°53' W 000°33'1111.1
2015-May-23 23:33N 49°42' W 000°28'1111.3
2015-May-23 22:33N 49°32' W 000°22'1211.5
2015-May-23 21:33N 49°21' W 000°15'4 4.0
2015-May-23 20:33N 49°17' W 000°15'0 0.0
2015-May-23 19:33N 49°17' W 000°15'1312.7
2015-May-23 18:33N 49°30' W 000°19'1918.9
2015-May-23 17:33N 49°47' W 000°30'2719.0
2015-May-23 16:08N 50°13' W 000°45'1219.7
2015-May-23 15:32N 50°24' W 000°52'1919.0
2015-May-23 14:33N 50°41' W 001°00'8 8.1
2015-May-23 13:33N 50°49' W 001°06'0 0.0
2015-May-23 12:33N 50°49' W 001°06'5 5.1
2015-May-23 11:33N 50°44' W 001°03'1818.2
2015-May-23 10:33N 50°29' W 000°47'3819.0
2015-May-23 08:33N 49°52' W 000°32'2020.4
2015-May-23 07:33N 49°33' W 000°21'1616.1
2015-May-23 06:33N 49°17' W 000°15'0 0.0
2015-May-23 05:33N 49°17' W 000°15'0 0.1
2015-May-23 04:34N 49°17' W 000°15'1616.1
2015-May-23 03:33N 49°33' W 000°20'1717.3
2015-May-23 02:33N 49°49' W 000°29'3415.1
2015-May-23 00:19N 50°21' W 000°49'1317.3
2015-May-22 23:33N 50°33' W 000°56'1414.5
2015-May-22 22:33N 50°46' W 001°05'2 2.5
2015-May-22 21:33N 50°49' W 001°06'0 0.0
2015-May-22 20:33N 50°49' W 001°06'5 5.4
2015-May-22 19:33N 50°44' W 001°02'1818.2
2015-May-22 18:33N 50°27' W 000°50'2919.5
2015-May-22 17:03N 49°60' W 000°35'917.8
2015-May-22 16:34N 49°51' W 000°31'1919.4
2015-May-22 15:34N 49°33' W 000°21'1616.0
2015-May-22 14:33N 49°17' W 000°15'0 0.0
2015-May-22 13:33N 49°17' W 000°15'2 1.7
2015-May-22 12:33N 49°19' W 000°15'1818.3
2015-May-22 11:33N 49°37' W 000°23'1818.4
2015-May-22 10:33N 49°53' W 000°35'3121.0
2015-May-22 09:06N 50°22' W 000°51'1221.3
2015-May-22 08:33N 50°33' W 000°56'1616.2
2015-May-22 07:33N 50°48' W 001°07'1 1.1
2015-May-22 06:33N 50°49' W 001°06'0 0.3
2015-May-22 05:33N 50°49' W 001°06'1211.6
2015-May-22 04:33N 50°38' W 000°59'1211.8
2015-May-22 03:31N 50°27' W 000°53'2611.8
2015-May-22 01:21N 50°03' W 000°36'911.6
2015-May-22 00:33N 49°55' W 000°30'1211.9
2015-May-21 23:33N 49°43' W 000°26'1211.9
2015-May-21 22:33N 49°32' W 000°21'1111.0
2015-May-21 21:33N 49°22' W 000°14'4 4.3
2015-May-21 20:33N 49°17' W 000°15'0 0.0
2015-May-21 19:34N 49°17' W 000°15'1313.4
2015-May-21 18:33N 49°30' W 000°20'2020.5
2015-May-21 17:33N 49°49' W 000°31'2020.2
2015-May-21 16:33N 50°08' W 000°42'2120.6
2015-May-21 15:33N 50°28' W 000°53'1918.8
2015-May-21 14:33N 50°45' W 001°05'4 3.8
2015-May-21 13:33N 50°49' W 001°06'0 0.0
2015-May-21 12:33N 50°49' W 001°06'4 3.6
2015-May-21 11:33N 50°45' W 001°05'1919.1
2015-May-21 10:33N 50°28' W 000°53'2820.1
2015-May-21 09:11N 50°02' W 000°38'1219.7
2015-May-21 08:33N 49°50' W 000°31'2019.9
2015-May-21 07:34N 49°31' W 000°22'1514.7
2015-May-21 06:33N 49°17' W 000°15'0 0.0
2015-May-21 05:33N 49°17' W 000°15'0 0.1
2015-May-21 04:33N 49°17' W 000°15'1515.1
2015-May-21 03:33N 49°32' W 000°21'1515.3
2015-May-21 02:33N 49°46' W 000°31'4013.3
2015-May-20 23:33N 50°22' W 000°56'1615.8
2015-May-20 22:33N 50°38' W 000°58'1212.0
2015-May-20 21:34N 50°48' W 001°07'1 0.7
2015-May-20 20:33N 50°49' W 001°06'0 0.0
2015-May-20 19:33N 50°49' W 001°06'0 0.0
2015-May-20 18:33N 50°49' W 001°06'5 4.9
2015-May-20 17:34N 50°44' W 001°03'1918.3
2015-May-20 16:33N 50°27' W 000°51'3517.5
2015-May-20 14:33N 49°54' W 000°33'1616.7
2015-May-20 13:34N 49°39' W 000°24'1818.0
2015-May-20 12:33N 49°22' W 000°15'4 4.4
2015-May-20 11:34N 49°17' W 000°15'0 0.0
2015-May-20 10:32N 49°17' W 000°15'0 0.0
2015-May-20 09:32N 49°17' W 000°15'0 0.1
2015-May-20 08:33N 49°17' W 000°15'0 0.0
2015-May-20 07:30N 49°17' W 000°15'0 0.0
2015-May-20 06:32N 49°17' W 000°15'0 0.1
2015-May-20 05:33N 49°17' W 000°15'1111.2
2015-May-20 04:34N 49°28' W 000°18'1616.4
2015-May-20 03:33N 49°43' W 000°28'3812.6
2015-May-20 00:32N 50°19' W 000°48'1615.9
2015-May-19 23:33N 50°34' W 000°56'1414.1
2015-May-19 22:33N 50°47' W 001°06'2 1.9
2015-May-19 21:33N 50°49' W 001°06'0 0.0
2015-May-19 20:33N 50°49' W 001°06'6 5.9
2015-May-19 19:34N 50°43' W 001°01'1817.7
2015-May-19 18:34N 50°27' W 000°50'4020.1
2015-May-19 16:34N 49°49' W 000°30'2120.5
2015-May-19 15:34N 49°30' W 000°18'1312.8
2015-May-19 14:33N 49°17' W 000°15'0 0.0
2015-May-19 13:33N 49°17' W 000°15'1 1.3
2015-May-19 12:33N 49°19' W 000°15'1818.3
2015-May-19 11:33N 49°36' W 000°22'2120.2
2015-May-19 10:33N 49°56' W 000°33'2320.5
2015-May-19 09:24N 50°18' W 000°46'1719.8
2015-May-19 08:34N 50°33' W 000°55'1716.6
2015-May-19 07:33N 50°48' W 001°07'1 1.1
2015-May-19 06:33N 50°49' W 001°06'1 0.5
2015-May-19 05:33N 50°49' W 001°07'1312.5
2015-May-19 04:33N 50°37' W 000°58'4111.8
2015-May-19 01:03N 49°59' W 000°34'611.4
2015-May-19 00:33N 49°54' W 000°31'1211.5
2015-May-18 23:33N 49°43' W 000°26'1111.1
2015-May-18 22:33N 49°32' W 000°20'1111.2
2015-May-18 21:33N 49°22' W 000°15'4 4.4
2015-May-18 20:33N 49°17' W 000°15'0 0.0
2015-May-18 19:33N 49°17' W 000°15'9 8.6
2015-May-18 18:33N 49°26' W 000°17'2019.9
2015-May-18 17:33N 49°44' W 000°30'4218.1
2015-May-18 15:16N 50°23' W 000°52'1319.2
2015-May-18 14:33N 50°36' W 000°57'1413.8
2015-May-18 13:33N 50°49' W 001°06'0 0.0
2015-May-18 12:33N 50°49' W 001°06'5 4.9
2015-May-18 11:34N 50°44' W 001°04'1817.6
2015-May-18 10:33N 50°28' W 000°51'3919.4
2015-May-18 08:33N 49°52' W 000°32'2020.2
2015-May-18 07:33N 49°33' W 000°20'1615.8
2015-May-18 06:33N 49°17' W 000°15'0 0.0
2015-May-18 05:33N 49°17' W 000°15'0 0.2
2015-May-18 04:33N 49°18' W 000°15'1414.1
2015-May-18 03:34N 49°31' W 000°20'1716.8
2015-May-18 02:34N 49°47' W 000°30'4314.3
2015-May-17 23:32N 50°27' W 000°54'1414.6
2015-May-17 22:34N 50°41' W 000°59'9 8.8
2015-May-17 21:34N 50°49' W 001°06'  
Track history (hours):
 
Tides and Currents Weather Stations Pressure Air Temp Water Temp Dewpoint Dewpoint Depression Visibility Wind Speed Wind Dir Waves Ship Positions

Mont Saint Michel

Last reported at 2015-May-27 21:34 UTC. Time now 2015-May-27 21:58 UTC.
Position N 50°46' W 001°05'.

Length 173 m; beam 29 m.

Type: Ship. MMSI: 227023100.

Date/timePositionNaut miles runAvg speedWind from/ knotsBaromVisibWave heightAir tempDewpointWater temp
2015-May-27 21:34N 50°46' W 001°05'2 2.5
2015-May-27 20:33N 50°49' W 001°06'0 0.0
2015-May-27 19:33N 50°49' W 001°06'0 0.0
2015-May-27 18:33N 50°49' W 001°06'5 4.7
2015-May-27 17:34N 50°44' W 001°04'1818.2
2015-May-27 16:34N 50°28' W 000°50'1917.9
2015-May-27 15:30N 50°10' W 000°42'1717.9
2015-May-27 14:34N 49°54' W 000°33'1818.2
2015-May-27 13:33N 49°37' W 000°25'1717.1
2015-May-27 12:33N 49°21' W 000°15'3 3.4
2015-May-27 11:33N 49°17' W 000°15'0 0.0
2015-May-27 10:33N 49°17' W 000°15'0 0.0
2015-May-27 09:33N 49°17' W 000°15'0 0.0
2015-May-27 08:33N 49°17' W 000°15'0 0.0
2015-May-27 07:33N 49°17' W 000°15'0 0.0
2015-May-27 06:33N 49°17' W 000°15'0 0.0
2015-May-27 05:33N 49°17' W 000°15'10 9.6
2015-May-27 04:33N 49°27' W 000°17'1212.3
2015-May-27 03:33N 49°38' W 000°24'1312.8
2015-May-27 02:33N 49°50' W 000°31'1312.8
2015-May-27 01:33N 50°02' W 000°38'1312.7
2015-May-27 00:33N 50°14' W 000°44'1515.6
2015-May-26 23:34N 50°29' W 000°53'1515.2
2015-May-26 22:34N 50°43' W 001°01'6 6.3
2015-May-26 21:33N 50°49' W 001°06'0 0.0
2015-May-26 20:34N 50°49' W 001°06'4 4.0
2015-May-26 19:33N 50°45' W 001°05'1919.3
2015-May-26 18:33N 50°27' W 000°53'2020.2
2015-May-26 17:33N 50°08' W 000°41'1919.3
2015-May-26 16:33N 49°50' W 000°31'1918.8
2015-May-26 15:33N 49°33' W 000°21'1615.7
2015-May-26 14:33N 49°17' W 000°15'0 0.0
2015-May-26 13:33N 49°17' W 000°15'1 1.0
2015-May-26 12:33N 49°18' W 000°15'1918.9
2015-May-26 11:34N 49°37' W 000°21'1919.4
2015-May-26 10:34N 49°55' W 000°31'1919.1
2015-May-26 09:33N 50°13' W 000°41'1919.3
2015-May-26 08:34N 50°31' W 000°53'1817.6
2015-May-26 07:33N 50°46' W 001°06'2 2.2
2015-May-26 06:33N 50°49' W 001°06'0 0.1
2015-May-26 05:34N 50°49' W 001°06'1313.0
2015-May-26 04:34N 50°37' W 000°56'1211.9
2015-May-26 03:33N 50°27' W 000°46'1110.9
2015-May-26 02:33N 50°16' W 000°43'1111.0
2015-May-26 01:31N 50°05' W 000°38'1111.3
2015-May-26 00:33N 49°55' W 000°33'1211.5
2015-May-25 23:33N 49°45' W 000°26'1211.5
2015-May-25 22:33N 49°33' W 000°21'1211.6
2015-May-25 21:33N 49°23' W 000°14'6 5.7
2015-May-25 20:33N 49°17' W 000°15'0 0.0
2015-May-25 19:34N 49°17' W 000°15'1211.7
2015-May-25 18:33N 49°29' W 000°19'1919.0
2015-May-25 17:33N 49°47' W 000°28'1817.5
2015-May-25 16:33N 50°03' W 000°37'1817.6
2015-May-25 15:33N 50°20' W 000°46'2019.7
2015-May-25 14:33N 50°38' W 000°58'1211.7
2015-May-25 13:34N 50°49' W 001°06'0 0.0
2015-May-25 12:33N 50°49' W 001°06'5 5.4
2015-May-25 11:34N 50°44' W 001°03'1716.3
2015-May-25 10:32N 50°28' W 000°54'1918.5
2015-May-25 09:29N 50°10' W 000°44'1920.2
2015-May-25 08:34N 49°52' W 000°34'2020.1
2015-May-25 07:34N 49°33' W 000°23'1716.8
2015-May-25 06:33N 49°17' W 000°15'0 0.1
2015-May-25 05:33N 49°17' W 000°15'0 0.1
2015-May-25 04:33N 49°17' W 000°15'1515.1
2015-May-25 03:33N 49°32' W 000°19'1312.5
2015-May-25 02:33N 49°44' W 000°26'1212.4
2015-May-25 01:33N 49°56' W 000°31'1615.2
2015-May-25 00:30N 50°11' W 000°37'1718.2
2015-May-24 23:33N 50°26' W 000°51'1717.0
2015-May-24 22:33N 50°42' W 000°59'8 7.7
2015-May-24 21:33N 50°49' W 001°06'0 0.0
2015-May-24 20:33N 50°49' W 001°06'6 6.3
2015-May-24 19:34N 50°43' W 001°01'1716.9
2015-May-24 18:33N 50°28' W 000°51'3618.0
2015-May-24 16:33N 49°54' W 000°32'1918.6
2015-May-24 15:33N 49°36' W 000°21'1818.3
2015-May-24 14:33N 49°19' W 000°15'1 1.2
2015-May-24 13:34N 49°17' W 000°15'0 0.1
2015-May-24 12:33N 49°17' W 000°15'1716.6
2015-May-24 11:33N 49°33' W 000°20'2020.1
2015-May-24 10:33N 49°53' W 000°29'3818.8
2015-May-24 08:33N 50°28' W 000°52'1818.0
2015-May-24 07:33N 50°44' W 001°04'5 5.0
2015-May-24 06:33N 50°49' W 001°06'0 0.0
2015-May-24 05:33N 50°49' W 001°06'1211.7
2015-May-24 04:33N 50°38' W 000°59'1111.3
2015-May-24 03:34N 50°27' W 000°53'1111.3
2015-May-24 02:33N 50°16' W 000°48'1413.9
2015-May-24 01:33N 50°04' W 000°40'1111.3
2015-May-24 00:34N 49°53' W 000°33'1111.1
2015-May-23 23:33N 49°42' W 000°28'1111.3
2015-May-23 22:33N 49°32' W 000°22'1211.5
2015-May-23 21:33N 49°21' W 000°15'4 4.0
2015-May-23 20:33N 49°17' W 000°15'0 0.0
2015-May-23 19:33N 49°17' W 000°15'1312.7
2015-May-23 18:33N 49°30' W 000°19'1918.9
2015-May-23 17:33N 49°47' W 000°30'2719.0
2015-May-23 16:08N 50°13' W 000°45'1219.7
2015-May-23 15:32N 50°24' W 000°52'1919.0
2015-May-23 14:33N 50°41' W 001°00'8 8.1
2015-May-23 13:33N 50°49' W 001°06'0 0.0
2015-May-23 12:33N 50°49' W 001°06'5 5.1
2015-May-23 11:33N 50°44' W 001°03'1818.2
2015-May-23 10:33N 50°29' W 000°47'3819.0
2015-May-23 08:33N 49°52' W 000°32'2020.4
2015-May-23 07:33N 49°33' W 000°21'1616.1
2015-May-23 06:33N 49°17' W 000°15'0 0.0
2015-May-23 05:33N 49°17' W 000°15'0 0.1
2015-May-23 04:34N 49°17' W 000°15'1616.1
2015-May-23 03:33N 49°33' W 000°20'1717.3
2015-May-23 02:33N 49°49' W 000°29'3415.1
2015-May-23 00:19N 50°21' W 000°49'1317.3
2015-May-22 23:33N 50°33' W 000°56'1414.5
2015-May-22 22:33N 50°46' W 001°05'2 2.5
2015-May-22 21:33N 50°49' W 001°06'0 0.0
2015-May-22 20:33N 50°49' W 001°06'5 5.4
2015-May-22 19:33N 50°44' W 001°02'1818.2
2015-May-22 18:33N 50°27' W 000°50'2919.5
2015-May-22 17:03N 49°60' W 000°35'917.8
2015-May-22 16:34N 49°51' W 000°31'1919.4
2015-May-22 15:34N 49°33' W 000°21'1616.0
2015-May-22 14:33N 49°17' W 000°15'0 0.0
2015-May-22 13:33N 49°17' W 000°15'2 1.7
2015-May-22 12:33N 49°19' W 000°15'1818.3
2015-May-22 11:33N 49°37' W 000°23'1818.4
2015-May-22 10:33N 49°53' W 000°35'3121.0
2015-May-22 09:06N 50°22' W 000°51'1221.3
2015-May-22 08:33N 50°33' W 000°56'1616.2
2015-May-22 07:33N 50°48' W 001°07'1 1.1
2015-May-22 06:33N 50°49' W 001°06'0 0.3
2015-May-22 05:33N 50°49' W 001°06'1211.6
2015-May-22 04:33N 50°38' W 000°59'1211.8
2015-May-22 03:31N 50°27' W 000°53'2611.8
2015-May-22 01:21N 50°03' W 000°36'911.6
2015-May-22 00:33N 49°55' W 000°30'1211.9
2015-May-21 23:33N 49°43' W 000°26'1211.9
2015-May-21 22:33N 49°32' W 000°21'1111.0
2015-May-21 21:33N 49°22' W 000°14'4 4.3
2015-May-21 20:33N 49°17' W 000°15'0 0.0
2015-May-21 19:34N 49°17' W 000°15'1313.4
2015-May-21 18:33N 49°30' W 000°20'2020.5
2015-May-21 17:33N 49°49' W 000°31'2020.2
2015-May-21 16:33N 50°08' W 000°42'2120.6
2015-May-21 15:33N 50°28' W 000°53'1918.8
2015-May-21 14:33N 50°45' W 001°05'4 3.8
2015-May-21 13:33N 50°49' W 001°06'0 0.0
2015-May-21 12:33N 50°49' W 001°06'4 3.6
2015-May-21 11:33N 50°45' W 001°05'1919.1
2015-May-21 10:33N 50°28' W 000°53'2820.1
2015-May-21 09:11N 50°02' W 000°38'1219.7
2015-May-21 08:33N 49°50' W 000°31'2019.9
2015-May-21 07:34N 49°31' W 000°22'1514.7
2015-May-21 06:33N 49°17' W 000°15'0 0.0
2015-May-21 05:33N 49°17' W 000°15'0 0.1
2015-May-21 04:33N 49°17' W 000°15'1515.1
2015-May-21 03:33N 49°32' W 000°21'1515.3
2015-May-21 02:33N 49°46' W 000°31'4013.3
2015-May-20 23:33N 50°22' W 000°56'1615.8
2015-May-20 22:33N 50°38' W 000°58'1212.0
2015-May-20 21:34N 50°48' W 001°07'1 0.7
2015-May-20 20:33N 50°49' W 001°06'0 0.0
2015-May-20 19:33N 50°49' W 001°06'0 0.0
2015-May-20 18:33N 50°49' W 001°06'5 4.9
2015-May-20 17:34N 50°44' W 001°03'1918.3
2015-May-20 16:33N 50°27' W 000°51'3517.5
2015-May-20 14:33N 49°54' W 000°33'1616.7
2015-May-20 13:34N 49°39' W 000°24'1818.0
2015-May-20 12:33N 49°22' W 000°15'4 4.4
2015-May-20 11:34N 49°17' W 000°15'0 0.0
2015-May-20 10:32N 49°17' W 000°15'0 0.0
2015-May-20 09:32N 49°17' W 000°15'0 0.1
2015-May-20 08:33N 49°17' W 000°15'0 0.0
2015-May-20 07:30N 49°17' W 000°15'0 0.0
2015-May-20 06:32N 49°17' W 000°15'0 0.1
2015-May-20 05:33N 49°17' W 000°15'1111.2
2015-May-20 04:34N 49°28' W 000°18'1616.4
2015-May-20 03:33N 49°43' W 000°28'3812.6
2015-May-20 00:32N 50°19' W 000°48'1615.9
2015-May-19 23:33N 50°34' W 000°56'1414.1
2015-May-19 22:33N 50°47' W 001°06'2 1.9
2015-May-19 21:33N 50°49' W 001°06'0 0.0
2015-May-19 20:33N 50°49' W 001°06'6 5.9
2015-May-19 19:34N 50°43' W 001°01'1817.7
2015-May-19 18:34N 50°27' W 000°50'4020.1
2015-May-19 16:34N 49°49' W 000°30'2120.5
2015-May-19 15:34N 49°30' W 000°18'1312.8
2015-May-19 14:33N 49°17' W 000°15'0 0.0
2015-May-19 13:33N 49°17' W 000°15'1 1.3
2015-May-19 12:33N 49°19' W 000°15'1818.3
2015-May-19 11:33N 49°36' W 000°22'2120.2
2015-May-19 10:33N 49°56' W 000°33'2320.5
2015-May-19 09:24N 50°18' W 000°46'1719.8
2015-May-19 08:34N 50°33' W 000°55'1716.6
2015-May-19 07:33N 50°48' W 001°07'1 1.1
2015-May-19 06:33N 50°49' W 001°06'1 0.5
2015-May-19 05:33N 50°49' W 001°07'1312.5
2015-May-19 04:33N 50°37' W 000°58'4111.8
2015-May-19 01:03N 49°59' W 000°34'611.4
2015-May-19 00:33N 49°54' W 000°31'1211.5
2015-May-18 23:33N 49°43' W 000°26'1111.1
2015-May-18 22:33N 49°32' W 000°20'1111.2
2015-May-18 21:33N 49°22' W 000°15'4 4.4
2015-May-18 20:33N 49°17' W 000°15'0 0.0
2015-May-18 19:33N 49°17' W 000°15'9 8.6
2015-May-18 18:33N 49°26' W 000°17'2019.9
2015-May-18 17:33N 49°44' W 000°30'4218.1
2015-May-18 15:16N 50°23' W 000°52'1319.2
2015-May-18 14:33N 50°36' W 000°57'1413.8
2015-May-18 13:33N 50°49' W 001°06'0 0.0
2015-May-18 12:33N 50°49' W 001°06'5 4.9
2015-May-18 11:34N 50°44' W 001°04'1817.6
2015-May-18 10:33N 50°28' W 000°51'3919.4
2015-May-18 08:33N 49°52' W 000°32'2020.2
2015-May-18 07:33N 49°33' W 000°20'1615.8
2015-May-18 06:33N 49°17' W 000°15'0 0.0
2015-May-18 05:33N 49°17' W 000°15'0 0.2
2015-May-18 04:33N 49°18' W 000°15'1414.1
2015-May-18 03:34N 49°31' W 000°20'1716.8
2015-May-18 02:34N 49°47' W 000°30'4314.3
2015-May-17 23:32N 50°27' W 000°54'1414.6
2015-May-17 22:34N 50°41' W 000°59'9 8.8
2015-May-17 21:34N 50°49' W 001°06'  

Dump ship's entire track history